sensor_id;sensor_type;location;lat;lon;timestamp;P1;durP1;ratioP1;P2;durP2;ratioP2
75220;SDS011;63802;53.232;6.570;2023-08-07T00:00:11;11.13;;;4.57;;
75220;SDS011;63802;53.232;6.570;2023-08-07T00:02:37;9.95;;;4.57;;
75220;SDS011;63802;53.232;6.570;2023-08-07T00:05:03;9.77;;;4.50;;
75220;SDS011;63802;53.232;6.570;2023-08-07T00:07:30;10.95;;;4.97;;
75220;SDS011;63802;53.232;6.570;2023-08-07T00:09:58;8.80;;;4.18;;
75220;SDS011;63802;53.232;6.570;2023-08-07T00:12:26;10.18;;;4.63;;
75220;SDS011;63802;53.232;6.570;2023-08-07T00:14:55;9.13;;;4.10;;
75220;SDS011;63802;53.232;6.570;2023-08-07T00:17:20;8.77;;;4.65;;
75220;SDS011;63802;53.232;6.570;2023-08-07T00:19:46;10.15;;;4.65;;
75220;SDS011;63802;53.232;6.570;2023-08-07T00:22:11;10.23;;;4.18;;
75220;SDS011;63802;53.232;6.570;2023-08-07T00:24:37;9.48;;;4.78;;
75220;SDS011;63802;53.232;6.570;2023-08-07T00:27:02;10.70;;;3.80;;
75220;SDS011;63802;53.232;6.570;2023-08-07T00:29:28;8.35;;;3.38;;
75220;SDS011;63802;53.232;6.570;2023-08-07T00:31:53;6.68;;;3.70;;
75220;SDS011;63802;53.232;6.570;2023-08-07T00:34:19;11.15;;;3.35;;
75220;SDS011;63802;53.232;6.570;2023-08-07T00:36:44;7.45;;;3.22;;
75220;SDS011;63802;53.232;6.570;2023-08-07T00:39:10;7.65;;;3.72;;
75220;SDS011;63802;53.232;6.570;2023-08-07T00:41:35;6.90;;;2.95;;
75220;SDS011;63802;53.232;6.570;2023-08-07T00:44:01;8.45;;;3.75;;
75220;SDS011;63802;53.232;6.570;2023-08-07T00:46:27;6.55;;;3.38;;
75220;SDS011;63802;53.232;6.570;2023-08-07T00:48:54;7.57;;;3.28;;
75220;SDS011;63802;53.232;6.570;2023-08-07T00:51:20;8.05;;;3.55;;
75220;SDS011;63802;53.232;6.570;2023-08-07T00:53:47;7.57;;;3.78;;
75220;SDS011;63802;53.232;6.570;2023-08-07T00:56:13;9.63;;;3.45;;
75220;SDS011;63802;53.232;6.570;2023-08-07T00:58:43;7.97;;;3.95;;
75220;SDS011;63802;53.232;6.570;2023-08-07T01:01:08;8.50;;;3.45;;
75220;SDS011;63802;53.232;6.570;2023-08-07T01:03:34;7.65;;;3.92;;
75220;SDS011;63802;53.232;6.570;2023-08-07T01:05:59;9.20;;;3.95;;
75220;SDS011;63802;53.232;6.570;2023-08-07T01:08:26;12.20;;;3.78;;
75220;SDS011;63802;53.232;6.570;2023-08-07T01:16:10;6.43;;;3.40;;
75220;SDS011;63802;53.232;6.570;2023-08-07T01:18:41;8.63;;;3.63;;
75220;SDS011;63802;53.232;6.570;2023-08-07T01:21:16;9.32;;;3.83;;
75220;SDS011;63802;53.232;6.570;2023-08-07T01:23:46;9.00;;;3.83;;
75220;SDS011;63802;53.232;6.570;2023-08-07T01:26:12;10.00;;;3.90;;
75220;SDS011;63802;53.232;6.570;2023-08-07T01:28:38;8.32;;;3.80;;
75220;SDS011;63802;53.232;6.570;2023-08-07T01:31:10;5.85;;;3.33;;
75220;SDS011;63802;53.232;6.570;2023-08-07T01:36:44;11.00;;;3.40;;
75220;SDS011;63802;53.232;6.570;2023-08-07T01:39:13;7.72;;;3.40;;
75220;SDS011;63802;53.232;6.570;2023-08-07T01:41:40;9.93;;;3.67;;
75220;SDS011;63802;53.232;6.570;2023-08-07T01:44:05;7.35;;;3.60;;
75220;SDS011;63802;53.232;6.570;2023-08-07T01:46:31;9.02;;;4.07;;
75220;SDS011;63802;53.232;6.570;2023-08-07T01:48:57;7.38;;;3.83;;
75220;SDS011;63802;53.232;6.570;2023-08-07T01:51:22;10.32;;;3.75;;
75220;SDS011;63802;53.232;6.570;2023-08-07T01:53:47;7.55;;;3.60;;
75220;SDS011;63802;53.232;6.570;2023-08-07T01:56:13;6.80;;;3.65;;
75220;SDS011;63802;53.232;6.570;2023-08-07T01:58:38;6.55;;;3.42;;
75220;SDS011;63802;53.232;6.570;2023-08-07T02:01:03;13.02;;;4.55;;
75220;SDS011;63802;53.232;6.570;2023-08-07T02:03:29;12.35;;;3.75;;
75220;SDS011;63802;53.232;6.570;2023-08-07T02:05:57;9.73;;;4.05;;
75220;SDS011;63802;53.232;6.570;2023-08-07T02:08:23;10.25;;;3.90;;
75220;SDS011;63802;53.232;6.570;2023-08-07T02:10:48;12.57;;;4.35;;
75220;SDS011;63802;53.232;6.570;2023-08-07T02:13:14;11.32;;;4.15;;
75220;SDS011;63802;53.232;6.570;2023-08-07T02:15:39;14.55;;;4.07;;
75220;SDS011;63802;53.232;6.570;2023-08-07T02:18:04;9.07;;;3.72;;
75220;SDS011;63802;53.232;6.570;2023-08-07T02:20:33;11.27;;;4.38;;
75220;SDS011;63802;53.232;6.570;2023-08-07T02:22:58;11.18;;;4.57;;
75220;SDS011;63802;53.232;6.570;2023-08-07T02:25:24;13.75;;;4.00;;
75220;SDS011;63802;53.232;6.570;2023-08-07T02:27:49;10.52;;;3.88;;
75220;SDS011;63802;53.232;6.570;2023-08-07T02:30:15;12.07;;;4.32;;
75220;SDS011;63802;53.232;6.570;2023-08-07T02:32:40;14.70;;;4.07;;
75220;SDS011;63802;53.232;6.570;2023-08-07T02:35:08;12.68;;;4.22;;
75220;SDS011;63802;53.232;6.570;2023-08-07T02:37:33;18.15;;;4.72;;
75220;SDS011;63802;53.232;6.570;2023-08-07T02:39:59;11.50;;;4.20;;
75220;SDS011;63802;53.232;6.570;2023-08-07T02:42:24;7.90;;;3.95;;
75220;SDS011;63802;53.232;6.570;2023-08-07T02:44:50;11.68;;;3.78;;
75220;SDS011;63802;53.232;6.570;2023-08-07T02:47:15;10.52;;;3.88;;
75220;SDS011;63802;53.232;6.570;2023-08-07T02:49:40;12.18;;;3.53;;
75220;SDS011;63802;53.232;6.570;2023-08-07T02:52:06;14.70;;;3.95;;
75220;SDS011;63802;53.232;6.570;2023-08-07T02:54:32;11.32;;;3.90;;
75220;SDS011;63802;53.232;6.570;2023-08-07T02:56:57;9.95;;;3.65;;
75220;SDS011;63802;53.232;6.570;2023-08-07T02:59:25;9.63;;;3.47;;
75220;SDS011;63802;53.232;6.570;2023-08-07T03:01:54;12.57;;;3.88;;
75220;SDS011;63802;53.232;6.570;2023-08-07T03:04:19;9.02;;;3.65;;
75220;SDS011;63802;53.232;6.570;2023-08-07T03:06:44;11.13;;;3.67;;
75220;SDS011;63802;53.232;6.570;2023-08-07T03:09:10;11.55;;;3.95;;
75220;SDS011;63802;53.232;6.570;2023-08-07T03:11:35;14.82;;;3.70;;
75220;SDS011;63802;53.232;6.570;2023-08-07T03:14:01;9.57;;;3.88;;
75220;SDS011;63802;53.232;6.570;2023-08-07T03:16:26;14.20;;;3.72;;
75220;SDS011;63802;53.232;6.570;2023-08-07T03:18:52;8.90;;;3.78;;
75220;SDS011;63802;53.232;6.570;2023-08-07T03:21:17;12.00;;;3.70;;
75220;SDS011;63802;53.232;6.570;2023-08-07T03:23:43;11.35;;;3.53;;
75220;SDS011;63802;53.232;6.570;2023-08-07T03:26:10;9.65;;;3.33;;
75220;SDS011;63802;53.232;6.570;2023-08-07T03:28:37;6.05;;;3.33;;
75220;SDS011;63802;53.232;6.570;2023-08-07T03:31:03;12.73;;;3.17;;
75220;SDS011;63802;53.232;6.570;2023-08-07T03:33:29;8.10;;;2.78;;
75220;SDS011;63802;53.232;6.570;2023-08-07T03:35:54;10.52;;;3.08;;
75220;SDS011;63802;53.232;6.570;2023-08-07T03:38:20;7.47;;;2.88;;
75220;SDS011;63802;53.232;6.570;2023-08-07T03:40:45;7.60;;;2.97;;
75220;SDS011;63802;53.232;6.570;2023-08-07T03:43:11;10.80;;;3.30;;
75220;SDS011;63802;53.232;6.570;2023-08-07T03:45:36;9.07;;;2.63;;
75220;SDS011;63802;53.232;6.570;2023-08-07T03:48:02;9.80;;;2.80;;
75220;SDS011;63802;53.232;6.570;2023-08-07T03:50:27;10.73;;;3.30;;
75220;SDS011;63802;53.232;6.570;2023-08-07T03:52:55;10.50;;;3.72;;
75220;SDS011;63802;53.232;6.570;2023-08-07T03:55:20;9.98;;;3.15;;
75220;SDS011;63802;53.232;6.570;2023-08-07T03:57:46;10.35;;;3.17;;
75220;SDS011;63802;53.232;6.570;2023-08-07T04:00:11;14.93;;;3.63;;
75220;SDS011;63802;53.232;6.570;2023-08-07T04:02:38;17.50;;;3.50;;
75220;SDS011;63802;53.232;6.570;2023-08-07T04:05:03;13.68;;;3.88;;
75220;SDS011;63802;53.232;6.570;2023-08-07T04:07:29;14.13;;;3.53;;
75220;SDS011;63802;53.232;6.570;2023-08-07T04:09:55;7.70;;;3.30;;
75220;SDS011;63802;53.232;6.570;2023-08-07T04:12:20;16.55;;;3.70;;
75220;SDS011;63802;53.232;6.570;2023-08-07T04:14:45;14.48;;;3.38;;
75220;SDS011;63802;53.232;6.570;2023-08-07T04:17:11;18.90;;;3.95;;
75220;SDS011;63802;53.232;6.570;2023-08-07T04:19:37;16.52;;;3.85;;
75220;SDS011;63802;53.232;6.570;2023-08-07T04:22:02;14.57;;;3.38;;
75220;SDS011;63802;53.232;6.570;2023-08-07T04:24:28;12.35;;;3.53;;
75220;SDS011;63802;53.232;6.570;2023-08-07T04:26:53;15.93;;;4.57;;
75220;SDS011;63802;53.232;6.570;2023-08-07T04:29:19;12.00;;;3.70;;
75220;SDS011;63802;53.232;6.570;2023-08-07T04:31:44;15.05;;;3.67;;
75220;SDS011;63802;53.232;6.570;2023-08-07T04:34:10;22.00;;;3.50;;
75220;SDS011;63802;53.232;6.570;2023-08-07T04:36:35;20.70;;;4.05;;
75220;SDS011;63802;53.232;6.570;2023-08-07T04:39:01;12.55;;;3.78;;
75220;SDS011;63802;53.232;6.570;2023-08-07T04:41:27;13.57;;;3.80;;
75220;SDS011;63802;53.232;6.570;2023-08-07T04:43:52;17.27;;;3.40;;
75220;SDS011;63802;53.232;6.570;2023-08-07T04:46:18;13.88;;;3.67;;
75220;SDS011;63802;53.232;6.570;2023-08-07T04:48:43;14.95;;;3.35;;
75220;SDS011;63802;53.232;6.570;2023-08-07T04:51:09;12.15;;;3.33;;
75220;SDS011;63802;53.232;6.570;2023-08-07T04:53:34;12.77;;;3.33;;
75220;SDS011;63802;53.232;6.570;2023-08-07T04:56:00;14.15;;;3.60;;
75220;SDS011;63802;53.232;6.570;2023-08-07T04:58:25;16.17;;;4.57;;
75220;SDS011;63802;53.232;6.570;2023-08-07T05:00:56;15.68;;;3.40;;
75220;SDS011;63802;53.232;6.570;2023-08-07T05:03:22;13.18;;;3.80;;
75220;SDS011;63802;53.232;6.570;2023-08-07T05:05:49;10.65;;;3.15;;
75220;SDS011;63802;53.232;6.570;2023-08-07T05:08:14;12.57;;;3.40;;
75220;SDS011;63802;53.232;6.570;2023-08-07T05:10:40;13.07;;;3.22;;
75220;SDS011;63802;53.232;6.570;2023-08-07T05:13:05;12.13;;;2.65;;
75220;SDS011;63802;53.232;6.570;2023-08-07T05:15:30;14.82;;;3.53;;
75220;SDS011;63802;53.232;6.570;2023-08-07T05:18:00;13.00;;;3.28;;
75220;SDS011;63802;53.232;6.570;2023-08-07T05:20:25;16.27;;;3.50;;
75220;SDS011;63802;53.232;6.570;2023-08-07T05:22:51;12.30;;;3.60;;
75220;SDS011;63802;53.232;6.570;2023-08-07T05:25:17;15.60;;;3.30;;
75220;SDS011;63802;53.232;6.570;2023-08-07T05:27:43;12.88;;;3.60;;
75220;SDS011;63802;53.232;6.570;2023-08-07T05:30:10;15.18;;;3.28;;
75220;SDS011;63802;53.232;6.570;2023-08-07T05:32:36;11.20;;;3.50;;
75220;SDS011;63802;53.232;6.570;2023-08-07T05:35:04;16.15;;;3.30;;
75220;SDS011;63802;53.232;6.570;2023-08-07T05:37:30;12.60;;;2.97;;
75220;SDS011;63802;53.232;6.570;2023-08-07T05:39:56;16.45;;;3.15;;
75220;SDS011;63802;53.232;6.570;2023-08-07T05:42:22;13.63;;;2.70;;
75220;SDS011;63802;53.232;6.570;2023-08-07T05:44:48;13.95;;;3.50;;
75220;SDS011;63802;53.232;6.570;2023-08-07T05:47:15;15.35;;;2.78;;
75220;SDS011;63802;53.232;6.570;2023-08-07T05:49:40;10.23;;;2.67;;
75220;SDS011;63802;53.232;6.570;2023-08-07T05:52:07;7.93;;;2.53;;
75220;SDS011;63802;53.232;6.570;2023-08-07T05:54:35;15.75;;;2.67;;
75220;SDS011;63802;53.232;6.570;2023-08-07T05:57:01;10.98;;;2.85;;
75220;SDS011;63802;53.232;6.570;2023-08-07T05:59:26;9.90;;;2.15;;
75220;SDS011;63802;53.232;6.570;2023-08-07T06:01:52;13.88;;;2.78;;
75220;SDS011;63802;53.232;6.570;2023-08-07T06:04:18;10.48;;;2.42;;
75220;SDS011;63802;53.232;6.570;2023-08-07T06:06:44;8.32;;;2.33;;
75220;SDS011;63802;53.232;6.570;2023-08-07T06:09:10;13.60;;;2.38;;
75220;SDS011;63802;53.232;6.570;2023-08-07T06:11:36;11.68;;;2.67;;
75220;SDS011;63802;53.232;6.570;2023-08-07T06:14:02;10.63;;;2.30;;
75220;SDS011;63802;53.232;6.570;2023-08-07T06:16:27;7.13;;;2.10;;
75220;SDS011;63802;53.232;6.570;2023-08-07T06:18:53;6.95;;;2.53;;
75220;SDS011;63802;53.232;6.570;2023-08-07T06:21:19;10.30;;;2.28;;
75220;SDS011;63802;53.232;6.570;2023-08-07T06:23:45;11.23;;;2.40;;
75220;SDS011;63802;53.232;6.570;2023-08-07T06:26:11;16.40;;;2.90;;
75220;SDS011;63802;53.232;6.570;2023-08-07T06:28:37;8.18;;;2.25;;
75220;SDS011;63802;53.232;6.570;2023-08-07T06:31:07;8.23;;;2.10;;
75220;SDS011;63802;53.232;6.570;2023-08-07T06:33:36;10.35;;;2.30;;
75220;SDS011;63802;53.232;6.570;2023-08-07T06:36:02;9.15;;;2.17;;
75220;SDS011;63802;53.232;6.570;2023-08-07T06:38:28;13.77;;;2.28;;
75220;SDS011;63802;53.232;6.570;2023-08-07T06:40:55;8.27;;;2.20;;
75220;SDS011;63802;53.232;6.570;2023-08-07T06:43:20;13.18;;;2.47;;
75220;SDS011;63802;53.232;6.570;2023-08-07T06:45:46;8.40;;;2.10;;
75220;SDS011;63802;53.232;6.570;2023-08-07T06:48:14;9.15;;;2.35;;
75220;SDS011;63802;53.232;6.570;2023-08-07T06:50:40;10.05;;;2.42;;
75220;SDS011;63802;53.232;6.570;2023-08-07T06:53:06;7.43;;;1.92;;
75220;SDS011;63802;53.232;6.570;2023-08-07T06:55:31;11.27;;;2.10;;
75220;SDS011;63802;53.232;6.570;2023-08-07T06:57:59;11.25;;;2.20;;
75220;SDS011;63802;53.232;6.570;2023-08-07T07:00:25;8.32;;;2.10;;
75220;SDS011;63802;53.232;6.570;2023-08-07T07:02:51;14.93;;;2.40;;
75220;SDS011;63802;53.232;6.570;2023-08-07T07:05:16;6.47;;;2.33;;
75220;SDS011;63802;53.232;6.570;2023-08-07T07:07:42;15.63;;;2.15;;
75220;SDS011;63802;53.232;6.570;2023-08-07T07:10:07;12.02;;;2.42;;
75220;SDS011;63802;53.232;6.570;2023-08-07T07:12:33;12.55;;;2.67;;
75220;SDS011;63802;53.232;6.570;2023-08-07T07:14:58;8.93;;;1.92;;
75220;SDS011;63802;53.232;6.570;2023-08-07T07:17:27;11.60;;;2.45;;
75220;SDS011;63802;53.232;6.570;2023-08-07T07:19:53;8.35;;;2.20;;
75220;SDS011;63802;53.232;6.570;2023-08-07T07:22:18;11.48;;;2.65;;
75220;SDS011;63802;53.232;6.570;2023-08-07T07:24:44;11.88;;;2.40;;
75220;SDS011;63802;53.232;6.570;2023-08-07T07:27:12;12.43;;;2.38;;
75220;SDS011;63802;53.232;6.570;2023-08-07T07:29:37;10.95;;;2.63;;
75220;SDS011;63802;53.232;6.570;2023-08-07T07:32:03;6.55;;;2.10;;
75220;SDS011;63802;53.232;6.570;2023-08-07T07:34:29;11.48;;;2.47;;
75220;SDS011;63802;53.232;6.570;2023-08-07T07:36:54;9.77;;;2.50;;
75220;SDS011;63802;53.232;6.570;2023-08-07T07:39:20;8.43;;;2.38;;
75220;SDS011;63802;53.232;6.570;2023-08-07T07:41:46;11.98;;;2.53;;
75220;SDS011;63802;53.232;6.570;2023-08-07T07:44:11;12.32;;;2.80;;
75220;SDS011;63802;53.232;6.570;2023-08-07T07:46:41;7.82;;;2.20;;
75220;SDS011;63802;53.232;6.570;2023-08-07T07:49:09;11.65;;;2.50;;
75220;SDS011;63802;53.232;6.570;2023-08-07T07:51:35;10.23;;;2.90;;
75220;SDS011;63802;53.232;6.570;2023-08-07T07:54:02;10.43;;;2.60;;
75220;SDS011;63802;53.232;6.570;2023-08-07T07:56:27;9.77;;;2.08;;
75220;SDS011;63802;53.232;6.570;2023-08-07T07:58:53;14.57;;;2.67;;
75220;SDS011;63802;53.232;6.570;2023-08-07T08:01:18;4.40;;;2.30;;
75220;SDS011;63802;53.232;6.570;2023-08-07T08:03:43;8.57;;;2.53;;
75220;SDS011;63802;53.232;6.570;2023-08-07T08:06:11;11.70;;;2.67;;
75220;SDS011;63802;53.232;6.570;2023-08-07T08:08:37;7.88;;;2.30;;
75220;SDS011;63802;53.232;6.570;2023-08-07T08:11:02;8.02;;;2.45;;
75220;SDS011;63802;53.232;6.570;2023-08-07T08:13:28;9.98;;;2.78;;
75220;SDS011;63802;53.232;6.570;2023-08-07T08:15:53;11.55;;;2.30;;
75220;SDS011;63802;53.232;6.570;2023-08-07T08:18:19;9.07;;;2.45;;
75220;SDS011;63802;53.232;6.570;2023-08-07T08:20:45;13.82;;;2.97;;
75220;SDS011;63802;53.232;6.570;2023-08-07T08:23:10;8.20;;;2.28;;
75220;SDS011;63802;53.232;6.570;2023-08-07T08:25:39;5.93;;;2.50;;
75220;SDS011;63802;53.232;6.570;2023-08-07T08:28:04;9.10;;;2.20;;
75220;SDS011;63802;53.232;6.570;2023-08-07T08:30:29;11.32;;;2.40;;
75220;SDS011;63802;53.232;6.570;2023-08-07T08:32:55;8.38;;;2.40;;
75220;SDS011;63802;53.232;6.570;2023-08-07T08:35:21;8.45;;;2.10;;
75220;SDS011;63802;53.232;6.570;2023-08-07T08:37:46;8.02;;;2.30;;
75220;SDS011;63802;53.232;6.570;2023-08-07T08:40:12;8.90;;;2.63;;
75220;SDS011;63802;53.232;6.570;2023-08-07T08:42:39;8.85;;;2.20;;
75220;SDS011;63802;53.232;6.570;2023-08-07T08:45:06;6.00;;;1.80;;
75220;SDS011;63802;53.232;6.570;2023-08-07T08:47:36;6.82;;;2.17;;
75220;SDS011;63802;53.232;6.570;2023-08-07T08:50:07;9.18;;;2.40;;
75220;SDS011;63802;53.232;6.570;2023-08-07T08:52:35;9.10;;;1.88;;
75220;SDS011;63802;53.232;6.570;2023-08-07T08:55:02;9.52;;;2.03;;
75220;SDS011;63802;53.232;6.570;2023-08-07T08:57:28;11.77;;;2.38;;
75220;SDS011;63802;53.232;6.570;2023-08-07T08:59:55;6.95;;;1.90;;
75220;SDS011;63802;53.232;6.570;2023-08-07T09:02:22;8.95;;;2.28;;
75220;SDS011;63802;53.232;6.570;2023-08-07T09:04:48;6.95;;;1.80;;
75220;SDS011;63802;53.232;6.570;2023-08-07T09:07:14;9.23;;;2.17;;
75220;SDS011;63802;53.232;6.570;2023-08-07T09:09:41;8.95;;;2.30;;
75220;SDS011;63802;53.232;6.570;2023-08-07T09:12:11;7.53;;;1.88;;
75220;SDS011;63802;53.232;6.570;2023-08-07T09:14:44;7.25;;;2.00;;
75220;SDS011;63802;53.232;6.570;2023-08-07T09:19:40;11.25;;;2.00;;
75220;SDS011;63802;53.232;6.570;2023-08-07T09:22:06;9.75;;;2.28;;
75220;SDS011;63802;53.232;6.570;2023-08-07T09:24:35;7.22;;;2.13;;
75220;SDS011;63802;53.232;6.570;2023-08-07T09:29:27;8.52;;;1.90;;
75220;SDS011;63802;53.232;6.570;2023-08-07T09:31:54;7.70;;;2.00;;
75220;SDS011;63802;53.232;6.570;2023-08-07T09:34:23;6.35;;;1.83;;
75220;SDS011;63802;53.232;6.570;2023-08-07T09:36:48;8.00;;;2.10;;
75220;SDS011;63802;53.232;6.570;2023-08-07T09:39:14;6.53;;;2.55;;
75220;SDS011;63802;53.232;6.570;2023-08-07T09:41:39;10.95;;;2.13;;
75220;SDS011;63802;53.232;6.570;2023-08-07T09:44:08;6.35;;;2.05;;
75220;SDS011;63802;53.232;6.570;2023-08-07T09:46:42;7.85;;;1.80;;
75220;SDS011;63802;53.232;6.570;2023-08-07T09:49:09;6.68;;;1.77;;
75220;SDS011;63802;53.232;6.570;2023-08-07T09:51:45;6.20;;;1.80;;
75220;SDS011;63802;53.232;6.570;2023-08-07T09:54:12;7.78;;;2.30;;
75220;SDS011;63802;53.232;6.570;2023-08-07T09:56:39;9.40;;;2.03;;
75220;SDS011;63802;53.232;6.570;2023-08-07T09:59:05;9.15;;;2.30;;
75220;SDS011;63802;53.232;6.570;2023-08-07T10:01:32;10.13;;;2.00;;
75220;SDS011;63802;53.232;6.570;2023-08-07T10:03:57;7.88;;;2.08;;
75220;SDS011;63802;53.232;6.570;2023-08-07T10:06:23;7.28;;;2.00;;
75220;SDS011;63802;53.232;6.570;2023-08-07T10:08:49;7.50;;;1.90;;
75220;SDS011;63802;53.232;6.570;2023-08-07T10:11:16;9.82;;;2.40;;
75220;SDS011;63802;53.232;6.570;2023-08-07T10:13:41;9.05;;;2.13;;
75220;SDS011;63802;53.232;6.570;2023-08-07T10:16:07;6.72;;;1.95;;
75220;SDS011;63802;53.232;6.570;2023-08-07T10:18:36;9.80;;;2.35;;
75220;SDS011;63802;53.232;6.570;2023-08-07T10:21:04;10.43;;;2.30;;
75220;SDS011;63802;53.232;6.570;2023-08-07T10:23:35;9.00;;;2.17;;
75220;SDS011;63802;53.232;6.570;2023-08-07T10:26:02;10.35;;;2.33;;
75220;SDS011;63802;53.232;6.570;2023-08-07T10:28:30;10.68;;;1.88;;
75220;SDS011;63802;53.232;6.570;2023-08-07T10:30:59;13.57;;;2.42;;
75220;SDS011;63802;53.232;6.570;2023-08-07T10:33:25;10.13;;;2.83;;
75220;SDS011;63802;53.232;6.570;2023-08-07T10:35:52;10.57;;;2.55;;
75220;SDS011;63802;53.232;6.570;2023-08-07T10:38:22;9.80;;;2.55;;
75220;SDS011;63802;53.232;6.570;2023-08-07T10:40:58;6.55;;;2.22;;
75220;SDS011;63802;53.232;6.570;2023-08-07T10:43:45;9.40;;;2.03;;
75220;SDS011;63802;53.232;6.570;2023-08-07T10:46:15;5.13;;;1.73;;
75220;SDS011;63802;53.232;6.570;2023-08-07T10:48:53;13.82;;;2.10;;
75220;SDS011;63802;53.232;6.570;2023-08-07T10:51:20;6.55;;;1.75;;
75220;SDS011;63802;53.232;6.570;2023-08-07T10:53:49;7.55;;;1.73;;
75220;SDS011;63802;53.232;6.570;2023-08-07T10:56:29;4.80;;;1.63;;
75220;SDS011;63802;53.232;6.570;2023-08-07T10:59:06;6.45;;;1.80;;
75220;SDS011;63802;53.232;6.570;2023-08-07T11:01:42;4.55;;;1.50;;
75220;SDS011;63802;53.232;6.570;2023-08-07T11:04:09;8.10;;;1.98;;
75220;SDS011;63802;53.232;6.570;2023-08-07T11:06:40;6.00;;;1.50;;
75220;SDS011;63802;53.232;6.570;2023-08-07T11:09:07;5.35;;;1.98;;
75220;SDS011;63802;53.232;6.570;2023-08-07T11:11:35;6.32;;;2.00;;
75220;SDS011;63802;53.232;6.570;2023-08-07T11:14:09;4.88;;;1.42;;
75220;SDS011;63802;53.232;6.570;2023-08-07T11:16:35;9.88;;;1.95;;
75220;SDS011;63802;53.232;6.570;2023-08-07T11:19:02;12.30;;;1.95;;
75220;SDS011;63802;53.232;6.570;2023-08-07T11:21:28;8.98;;;1.85;;
75220;SDS011;63802;53.232;6.570;2023-08-07T11:23:55;7.07;;;1.98;;
75220;SDS011;63802;53.232;6.570;2023-08-07T11:26:21;9.70;;;1.88;;
75220;SDS011;63802;53.232;6.570;2023-08-07T11:28:47;8.57;;;1.90;;
75220;SDS011;63802;53.232;6.570;2023-08-07T11:31:13;9.55;;;1.90;;
75220;SDS011;63802;53.232;6.570;2023-08-07T11:33:38;7.85;;;2.00;;
75220;SDS011;63802;53.232;6.570;2023-08-07T11:36:12;8.38;;;1.98;;
75220;SDS011;63802;53.232;6.570;2023-08-07T11:38:39;7.13;;;1.77;;
75220;SDS011;63802;53.232;6.570;2023-08-07T11:41:09;4.10;;;1.83;;
75220;SDS011;63802;53.232;6.570;2023-08-07T11:43:36;4.75;;;1.85;;
75220;SDS011;63802;53.232;6.570;2023-08-07T11:46:03;6.85;;;2.15;;
75220;SDS011;63802;53.232;6.570;2023-08-07T11:48:31;4.40;;;1.38;;
75220;SDS011;63802;53.232;6.570;2023-08-07T11:50:57;3.47;;;1.48;;
75220;SDS011;63802;53.232;6.570;2023-08-07T11:53:25;2.78;;;1.05;;
75220;SDS011;63802;53.232;6.570;2023-08-07T11:58:21;2.67;;;1.08;;
75220;SDS011;63802;53.232;6.570;2023-08-07T12:00:51;3.70;;;1.42;;
75220;SDS011;63802;53.232;6.570;2023-08-07T12:03:30;6.93;;;2.00;;
75220;SDS011;63802;53.232;6.570;2023-08-07T12:05:58;6.15;;;1.52;;
75220;SDS011;63802;53.232;6.570;2023-08-07T12:08:36;5.17;;;1.70;;
75220;SDS011;63802;53.232;6.570;2023-08-07T12:11:07;5.72;;;1.85;;
75220;SDS011;63802;53.232;6.570;2023-08-07T12:13:36;7.30;;;1.90;;
75220;SDS011;63802;53.232;6.570;2023-08-07T12:16:12;5.45;;;1.63;;
75220;SDS011;63802;53.232;6.570;2023-08-07T12:18:43;3.13;;;1.52;;
75220;SDS011;63802;53.232;6.570;2023-08-07T12:21:16;6.93;;;1.88;;
75220;SDS011;63802;53.232;6.570;2023-08-07T12:23:48;5.00;;;1.52;;
75220;SDS011;63802;53.232;6.570;2023-08-07T12:26:18;6.03;;;1.52;;
75220;SDS011;63802;53.232;6.570;2023-08-07T12:28:44;3.78;;;1.40;;
75220;SDS011;63802;53.232;6.570;2023-08-07T12:31:09;4.40;;;1.67;;
75220;SDS011;63802;53.232;6.570;2023-08-07T12:33:35;7.15;;;2.00;;
75220;SDS011;63802;53.232;6.570;2023-08-07T12:36:01;9.32;;;2.20;;
75220;SDS011;63802;53.232;6.570;2023-08-07T12:38:30;4.82;;;1.80;;
75220;SDS011;63802;53.232;6.570;2023-08-07T12:40:56;5.53;;;1.75;;
75220;SDS011;63802;53.232;6.570;2023-08-07T12:43:22;8.02;;;1.92;;
75220;SDS011;63802;53.232;6.570;2023-08-07T12:45:48;7.47;;;2.10;;
75220;SDS011;63802;53.232;6.570;2023-08-07T12:48:13;4.63;;;2.22;;
75220;SDS011;63802;53.232;6.570;2023-08-07T12:50:39;6.90;;;2.08;;
75220;SDS011;63802;53.232;6.570;2023-08-07T12:53:05;6.78;;;1.63;;
75220;SDS011;63802;53.232;6.570;2023-08-07T12:55:31;8.35;;;2.10;;
75220;SDS011;63802;53.232;6.570;2023-08-07T12:57:57;5.30;;;1.90;;
75220;SDS011;63802;53.232;6.570;2023-08-07T13:00:23;7.82;;;1.90;;
75220;SDS011;63802;53.232;6.570;2023-08-07T13:02:49;6.43;;;1.63;;
75220;SDS011;63802;53.232;6.570;2023-08-07T13:05:16;5.25;;;2.13;;
75220;SDS011;63802;53.232;6.570;2023-08-07T13:07:43;3.85;;;1.65;;
75220;SDS011;63802;53.232;6.570;2023-08-07T13:10:10;6.10;;;2.08;;
75220;SDS011;63802;53.232;6.570;2023-08-07T13:12:38;9.77;;;2.35;;
75220;SDS011;63802;53.232;6.570;2023-08-07T13:15:06;8.10;;;2.45;;
75220;SDS011;63802;53.232;6.570;2023-08-07T13:17:36;10.35;;;2.47;;
75220;SDS011;63802;53.232;6.570;2023-08-07T13:20:02;5.57;;;2.08;;
75220;SDS011;63802;53.232;6.570;2023-08-07T13:22:42;9.02;;;2.38;;
75220;SDS011;63802;53.232;6.570;2023-08-07T13:25:11;11.63;;;2.30;;
75220;SDS011;63802;53.232;6.570;2023-08-07T13:27:37;9.20;;;2.30;;
75220;SDS011;63802;53.232;6.570;2023-08-07T13:30:04;7.90;;;2.35;;
75220;SDS011;63802;53.232;6.570;2023-08-07T13:32:30;10.05;;;2.17;;
75220;SDS011;63802;53.232;6.570;2023-08-07T13:34:57;5.28;;;2.10;;
75220;SDS011;63802;53.232;6.570;2023-08-07T13:37:22;6.60;;;1.83;;
75220;SDS011;63802;53.232;6.570;2023-08-07T13:39:48;4.13;;;1.63;;
75220;SDS011;63802;53.232;6.570;2023-08-07T13:42:15;4.60;;;1.50;;
75220;SDS011;63802;53.232;6.570;2023-08-07T13:44:41;7.10;;;1.63;;
75220;SDS011;63802;53.232;6.570;2023-08-07T13:47:07;7.22;;;2.05;;
75220;SDS011;63802;53.232;6.570;2023-08-07T13:49:33;8.85;;;2.30;;
75220;SDS011;63802;53.232;6.570;2023-08-07T13:51:59;5.35;;;2.15;;
75220;SDS011;63802;53.232;6.570;2023-08-07T13:54:24;7.93;;;2.35;;
75220;SDS011;63802;53.232;6.570;2023-08-07T13:56:50;14.05;;;2.30;;
75220;SDS011;63802;53.232;6.570;2023-08-07T13:59:16;10.15;;;2.50;;
75220;SDS011;63802;53.232;6.570;2023-08-07T14:01:41;7.30;;;2.17;;
75220;SDS011;63802;53.232;6.570;2023-08-07T14:04:07;8.05;;;2.25;;
75220;SDS011;63802;53.232;6.570;2023-08-07T14:06:32;5.18;;;2.13;;
75220;SDS011;63802;53.232;6.570;2023-08-07T14:08:58;8.00;;;2.53;;
75220;SDS011;63802;53.232;6.570;2023-08-07T14:11:23;7.60;;;2.10;;
75220;SDS011;63802;53.232;6.570;2023-08-07T14:13:56;6.57;;;2.10;;
75220;SDS011;63802;53.232;6.570;2023-08-07T14:16:22;9.23;;;2.17;;
75220;SDS011;63802;53.232;6.570;2023-08-07T14:18:47;8.43;;;2.53;;
75220;SDS011;63802;53.232;6.570;2023-08-07T14:21:13;4.93;;;1.73;;
75220;SDS011;63802;53.232;6.570;2023-08-07T14:23:41;8.95;;;2.45;;
75220;SDS011;63802;53.232;6.570;2023-08-07T14:26:11;6.55;;;1.90;;
75220;SDS011;63802;53.232;6.570;2023-08-07T14:28:36;7.03;;;2.10;;
75220;SDS011;63802;53.232;6.570;2023-08-07T14:31:05;6.20;;;1.90;;
75220;SDS011;63802;53.232;6.570;2023-08-07T14:33:32;5.65;;;1.92;;
75220;SDS011;63802;53.232;6.570;2023-08-07T14:35:57;8.25;;;1.80;;
75220;SDS011;63802;53.232;6.570;2023-08-07T14:38:23;5.03;;;1.67;;
75220;SDS011;63802;53.232;6.570;2023-08-07T14:40:48;6.70;;;2.08;;
75220;SDS011;63802;53.232;6.570;2023-08-07T14:43:14;7.63;;;2.03;;
75220;SDS011;63802;53.232;6.570;2023-08-07T14:45:42;6.00;;;1.73;;
75220;SDS011;63802;53.232;6.570;2023-08-07T14:48:08;8.57;;;2.50;;
75220;SDS011;63802;53.232;6.570;2023-08-07T14:50:33;3.63;;;1.80;;
75220;SDS011;63802;53.232;6.570;2023-08-07T14:53:02;6.07;;;1.60;;
75220;SDS011;63802;53.232;6.570;2023-08-07T14:55:27;5.57;;;1.70;;